Time;durP1;ratioP1;P1;durP2;ratioP2;P2;SDS_P1;SDS_P2;PMS_P1;PMS_P2;Temp;Humidity;BMP_temperature;BMP_pressure;BME280_temperature;BME280_humidity;BME280_pressure;Samples;Min_cycle;Max_cycle;Signal;HPM_P1;HPM_P2
2021/12/15 00:02:21;;;;;;;24.33;10.57;;;;;;;;;;5029992;28;20099;-80
2021/12/15 00:04:50;;;;;;;32.20;12.88;;;;;;;;;;5032716;28;20713;-79
2021/12/15 00:07:17;;;;;;;25.65;9.05;;;;;;;;;;5032211;28;20049;-79
2021/12/15 00:09:44;;;;;;;23.58;10.35;;;;;;;;;;5029213;28;20069;-79
2021/12/15 00:12:13;;;;;;;21.83;9.40;;;;;;;;;;5031667;28;20073;-79
2021/12/15 00:14:41;;;;;;;23.52;10.50;;;;;;;;;;5032720;28;20049;-79
2021/12/15 00:17:07;;;;;;;25.27;9.52;;;;;;;;;;5033957;28;20072;-79
2021/12/15 00:19:34;;;;;;;22.38;9.32;;;;;;;;;;5032417;28;20107;-80
2021/12/15 00:22:01;;;;;;;22.40;11.15;;;;;;;;;;5033804;28;20672;-79
2021/12/15 00:24:28;;;;;;;25.95;9.55;;;;;;;;;;5033518;28;20049;-79
2021/12/15 00:26:56;;;;;;;25.30;10.40;;;;;;;;;;5029251;28;20073;-79
2021/12/15 00:29:25;;;;;;;31.73;13.05;;;;;;;;;;5035102;28;20048;-80
2021/12/15 00:31:51;;;;;;;30.15;12.30;;;;;;;;;;5030732;28;20061;-80
2021/12/15 00:34:18;;;;;;;30.23;10.43;;;;;;;;;;5036066;28;20045;-79
2021/12/15 00:36:45;;;;;;;28.30;12.55;;;;;;;;;;5030678;28;20079;-80
2021/12/15 00:39:15;;;;;;;25.90;11.35;;;;;;;;;;5032479;28;20071;-80
2021/12/15 00:41:42;;;;;;;28.17;11.85;;;;;;;;;;5033641;28;20100;-79
2021/12/15 00:44:09;;;;;;;25.88;11.32;;;;;;;;;;5031505;28;20076;-80
2021/12/15 00:46:38;;;;;;;34.50;12.82;;;;;;;;;;5032981;28;20065;-80
2021/12/15 00:49:06;;;;;;;32.90;13.57;;;;;;;;;;5024511;28;20539;-80
2021/12/15 00:51:33;;;;;;;27.83;12.32;;;;;;;;;;5029852;28;20788;-80
2021/12/15 00:53:59;;;;;;;23.98;10.93;;;;;;;;;;5035887;28;20065;-80
2021/12/15 00:56:26;;;;;;;34.03;12.70;;;;;;;;;;5033167;28;20077;-80
2021/12/15 00:58:53;;;;;;;27.98;11.10;;;;;;;;;;5034392;28;20089;-80
2021/12/15 01:01:19;;;;;;;25.88;11.15;;;;;;;;;;5030248;28;20045;-79
2021/12/15 01:03:47;;;;;;;26.98;11.00;;;;;;;;;;5035318;28;20069;-80
2021/12/15 01:06:17;;;;;;;30.08;11.35;;;;;;;;;;5037179;28;20102;-80
2021/12/15 01:08:48;;;;;;;29.52;10.77;;;;;;;;;;5033375;28;20049;-80
2021/12/15 01:11:27;;;;;;;27.02;11.23;;;;;;;;;;5027463;28;20112;-80
2021/12/15 01:19:52;;;;;;;26.75;10.57;;;;;;;;;;5030992;28;20271;-80
2021/12/15 01:22:23;;;;;;;25.10;10.27;;;;;;;;;;5034069;28;20057;-79
2021/12/15 01:24:49;;;;;;;30.75;11.38;;;;;;;;;;5033574;28;20652;-80
2021/12/15 01:27:16;;;;;;;24.10;12.27;;;;;;;;;;5033672;28;20080;-80
2021/12/15 01:29:43;;;;;;;27.17;11.32;;;;;;;;;;5026455;28;20653;-80
2021/12/15 01:32:09;;;;;;;24.70;11.00;;;;;;;;;;5032270;28;20041;-80
2021/12/15 01:34:37;;;;;;;26.17;10.77;;;;;;;;;;5032143;28;20048;-80
2021/12/15 01:37:05;;;;;;;30.17;11.35;;;;;;;;;;5034637;28;20091;-80
2021/12/15 01:39:31;;;;;;;26.92;10.80;;;;;;;;;;5031312;28;20077;-80
2021/12/15 01:41:58;;;;;;;35.60;13.02;;;;;;;;;;5033848;28;20041;-81
2021/12/15 01:47:09;;;;;;;36.90;13.23;;;;;;;;;;5037809;28;20128;-80
2021/12/15 01:49:40;;;;;;;31.90;11.30;;;;;;;;;;5034019;28;20132;-80
2021/12/15 01:52:12;;;;;;;30.33;10.50;;;;;;;;;;5032963;28;20080;-80
2021/12/15 01:54:41;;;;;;;29.13;11.07;;;;;;;;;;5036003;28;20037;-80
2021/12/15 01:57:09;;;;;;;28.98;10.90;;;;;;;;;;5030911;28;20062;-80
2021/12/15 01:59:36;;;;;;;28.75;11.43;;;;;;;;;;5031685;28;20073;-80
2021/12/15 02:02:04;;;;;;;27.00;11.05;;;;;;;;;;5037637;28;20061;-80
2021/12/15 02:04:30;;;;;;;29.17;10.52;;;;;;;;;;5034042;28;20079;-80
2021/12/15 02:06:59;;;;;;;23.48;9.85;;;;;;;;;;5034393;28;20080;-79
2021/12/15 02:09:45;;;;;;;28.02;12.45;;;;;;;;;;5033357;28;20052;-80
2021/12/15 02:12:12;;;;;;;30.17;11.63;;;;;;;;;;5038259;28;20045;-80
2021/12/15 02:14:39;;;;;;;23.35;10.57;;;;;;;;;;5040062;28;20095;-80
2021/12/15 02:17:06;;;;;;;26.95;11.60;;;;;;;;;;5037551;28;20046;-79
2021/12/15 02:19:33;;;;;;;29.10;12.32;;;;;;;;;;5033833;28;20775;-79
2021/12/15 02:22:01;;;;;;;21.92;9.65;;;;;;;;;;5035935;28;20053;-80
2021/12/15 02:24:28;;;;;;;25.23;10.52;;;;;;;;;;5034883;28;20041;-80
2021/12/15 02:26:59;;;;;;;27.23;11.77;;;;;;;;;;5036242;28;20046;-80
2021/12/15 02:29:26;;;;;;;25.35;12.43;;;;;;;;;;5034525;28;20052;-79
2021/12/15 02:32:00;;;;;;;26.52;11.23;;;;;;;;;;5034082;28;20071;-80
2021/12/15 02:34:56;;;;;;;19.65;9.65;;;;;;;;;;5033958;28;20053;-80
2021/12/15 02:37:24;;;;;;;24.90;10.18;;;;;;;;;;5035806;28;20067;-79
2021/12/15 02:39:53;;;;;;;21.92;11.13;;;;;;;;;;5035936;28;20041;-79
2021/12/15 02:42:20;;;;;;;22.10;10.15;;;;;;;;;;5039461;28;20107;-80
2021/12/15 02:44:47;;;;;;;27.70;9.75;;;;;;;;;;5036394;28;20103;-80
2021/12/15 02:47:15;;;;;;;23.75;9.38;;;;;;;;;;5032856;28;20045;-80
2021/12/15 02:49:42;;;;;;;18.25;7.72;;;;;;;;;;5038274;28;20041;-80
2021/12/15 02:52:09;;;;;;;17.95;6.70;;;;;;;;;;5037351;28;20061;-80
2021/12/15 02:54:38;;;;;;;19.48;7.40;;;;;;;;;;5035598;28;20093;-80
2021/12/15 02:57:10;;;;;;;25.50;8.15;;;;;;;;;;5035441;28;20088;-80
2021/12/15 02:59:46;;;;;;;24.33;8.43;;;;;;;;;;5038825;28;21230;-80
2021/12/15 03:02:26;;;;;;;23.80;8.55;;;;;;;;;;5038184;28;20444;-80
2021/12/15 03:05:04;;;;;;;20.40;8.48;;;;;;;;;;5033955;28;20205;-80
2021/12/15 03:07:37;;;;;;;18.30;8.43;;;;;;;;;;5033697;28;20048;-80
2021/12/15 03:15:35;;;;;;;23.08;9.57;;;;;;;;;;5036014;28;20595;-80
2021/12/15 03:18:05;;;;;;;25.25;10.25;;;;;;;;;;5034968;28;20041;-80
2021/12/15 03:20:35;;;;;;;18.75;8.30;;;;;;;;;;5036975;28;20073;-80
2021/12/15 03:23:01;;;;;;;19.80;7.50;;;;;;;;;;5035253;28;20042;-80
2021/12/15 03:25:31;;;;;;;21.58;7.93;;;;;;;;;;5034217;28;20053;-80
2021/12/15 03:33:55;;;;;;;18.42;7.50;;;;;;;;;;5033183;28;20076;-80
2021/12/15 03:36:36;;;;;;;19.55;7.88;;;;;;;;;;5032426;28;20049;-80
2021/12/15 03:39:04;;;;;;;18.35;8.13;;;;;;;;;;5039210;28;20095;-80
2021/12/15 03:41:33;;;;;;;19.92;7.63;;;;;;;;;;5039757;28;20425;-80
2021/12/15 03:44:00;;;;;;;14.52;6.53;;;;;;;;;;5032642;28;20041;-80
2021/12/15 03:46:27;;;;;;;16.27;6.68;;;;;;;;;;5030286;28;20703;-80
2021/12/15 03:48:54;;;;;;;14.45;6.97;;;;;;;;;;5038446;28;20077;-80
2021/12/15 03:51:20;;;;;;;14.85;6.80;;;;;;;;;;5034752;28;20065;-80
2021/12/15 03:53:47;;;;;;;15.35;6.50;;;;;;;;;;5033253;28;20042;-80
2021/12/15 03:56:15;;;;;;;16.70;7.15;;;;;;;;;;5035413;28;20512;-80
2021/12/15 03:58:44;;;;;;;13.90;5.82;;;;;;;;;;5031739;28;20129;-80
2021/12/15 04:01:13;;;;;;;16.48;6.40;;;;;;;;;;5032229;28;20049;-80
2021/12/15 04:03:42;;;;;;;16.08;6.85;;;;;;;;;;5034464;28;20045;-80
2021/12/15 04:06:10;;;;;;;15.80;6.55;;;;;;;;;;5032695;28;20077;-80
2021/12/15 04:08:37;;;;;;;15.38;6.32;;;;;;;;;;5034361;28;20046;-80
2021/12/15 04:11:06;;;;;;;15.50;6.00;;;;;;;;;;5033544;28;20054;-80
2021/12/15 04:13:33;;;;;;;15.07;5.70;;;;;;;;;;5031946;28;20103;-80
2021/12/15 04:16:06;;;;;;;13.77;6.28;;;;;;;;;;5033495;28;20037;-80
2021/12/15 04:18:33;;;;;;;13.07;6.15;;;;;;;;;;5038941;28;20053;-80
2021/12/15 04:21:00;;;;;;;12.40;5.55;;;;;;;;;;5037812;28;20041;-79
2021/12/15 04:23:27;;;;;;;16.65;5.47;;;;;;;;;;5035035;28;20081;-80
2021/12/15 04:25:56;;;;;;;15.15;5.95;;;;;;;;;;5030553;28;20072;-80
2021/12/15 04:28:33;;;;;;;13.98;5.47;;;;;;;;;;5036150;28;20052;-80
2021/12/15 04:31:05;;;;;;;16.52;5.90;;;;;;;;;;5027011;28;20042;-81
2021/12/15 04:33:36;;;;;;;11.45;6.10;;;;;;;;;;5035447;28;20073;-79
2021/12/15 04:36:05;;;;;;;13.52;5.75;;;;;;;;;;5044129;28;20055;-79
2021/12/15 04:38:33;;;;;;;12.98;6.18;;;;;;;;;;5038473;28;20144;-80
2021/12/15 04:41:03;;;;;;;14.15;5.95;;;;;;;;;;5035546;28;20072;-80
2021/12/15 04:43:33;;;;;;;16.70;6.72;;;;;;;;;;5032335;28;20045;-80
2021/12/15 04:46:02;;;;;;;17.00;7.00;;;;;;;;;;5033657;28;20567;-80
2021/12/15 04:48:29;;;;;;;16.83;6.32;;;;;;;;;;5028878;28;20564;-80
2021/12/15 04:50:56;;;;;;;18.95;7.25;;;;;;;;;;5036625;28;20045;-80
2021/12/15 04:53:22;;;;;;;13.20;5.80;;;;;;;;;;5036562;28;20111;-80
2021/12/15 04:55:49;;;;;;;17.38;7.28;;;;;;;;;;5030296;28;20086;-80
2021/12/15 04:58:16;;;;;;;16.02;6.60;;;;;;;;;;5031439;28;20072;-81
2021/12/15 05:00:46;;;;;;;12.55;6.15;;;;;;;;;;5027745;28;20073;-80
2021/12/15 05:03:14;;;;;;;18.45;7.28;;;;;;;;;;5030543;28;20099;-80
2021/12/15 05:05:41;;;;;;;15.27;5.90;;;;;;;;;;5038471;28;20093;-80
2021/12/15 05:08:08;;;;;;;15.38;7.25;;;;;;;;;;5032550;28;20425;-80
2021/12/15 05:10:35;;;;;;;19.95;7.47;;;;;;;;;;5037232;28;20068;-80
2021/12/15 05:13:02;;;;;;;15.23;6.05;;;;;;;;;;5031660;28;20077;-80
2021/12/15 05:15:29;;;;;;;16.65;6.13;;;;;;;;;;5031636;28;20176;-80
2021/12/15 05:17:56;;;;;;;18.55;6.28;;;;;;;;;;5027192;28;20505;-80
2021/12/15 05:20:25;;;;;;;17.27;6.28;;;;;;;;;;5038712;28;20069;-80
2021/12/15 05:22:52;;;;;;;19.77;7.15;;;;;;;;;;5040107;28;20041;-80
2021/12/15 05:25:18;;;;;;;14.88;6.65;;;;;;;;;;5039196;28;20045;-80
2021/12/15 05:27:45;;;;;;;23.45;8.30;;;;;;;;;;5029070;28;20053;-80
2021/12/15 05:30:16;;;;;;;57.38;16.25;;;;;;;;;;5029575;28;20520;-80
2021/12/15 05:32:43;;;;;;;67.53;21.20;;;;;;;;;;5031826;28;20069;-80
2021/12/15 05:35:15;;;;;;;58.35;22.27;;;;;;;;;;5033694;28;20494;-80
2021/12/15 05:37:44;;;;;;;37.92;13.85;;;;;;;;;;5037266;28;20559;-80
2021/12/15 05:40:11;;;;;;;35.03;13.13;;;;;;;;;;5031907;28;21704;-80
2021/12/15 05:42:38;;;;;;;26.55;10.80;;;;;;;;;;5028888;28;20081;-80
2021/12/15 05:45:05;;;;;;;23.75;10.18;;;;;;;;;;5031176;28;20120;-81
2021/12/15 05:47:32;;;;;;;24.55;9.57;;;;;;;;;;5027586;28;20438;-80
2021/12/15 05:49:59;;;;;;;19.77;8.82;;;;;;;;;;5032308;28;20068;-79
2021/12/15 05:52:29;;;;;;;23.88;9.48;;;;;;;;;;5030970;28;20073;-79
2021/12/15 05:54:58;;;;;;;17.23;8.00;;;;;;;;;;5034471;28;20092;-80
2021/12/15 05:57:25;;;;;;;15.48;6.55;;;;;;;;;;5028496;28;20097;-80
2021/12/15 05:59:51;;;;;;;21.10;8.73;;;;;;;;;;5033002;28;20069;-81
2021/12/15 06:02:18;;;;;;;16.63;7.50;;;;;;;;;;5021422;28;20097;-80
2021/12/15 06:04:46;;;;;;;17.50;6.13;;;;;;;;;;5031971;28;20072;-80
2021/12/15 06:07:12;;;;;;;15.90;7.15;;;;;;;;;;5035270;28;20493;-79
2021/12/15 06:09:39;;;;;;;18.85;7.35;;;;;;;;;;5031071;28;20096;-80
2021/12/15 06:12:08;;;;;;;15.95;6.20;;;;;;;;;;5031354;28;20482;-80
2021/12/15 06:14:35;;;;;;;14.57;6.47;;;;;;;;;;5029928;28;20049;-80
2021/12/15 06:17:07;;;;;;;15.77;6.82;;;;;;;;;;5032217;28;20041;-80
2021/12/15 06:19:33;;;;;;;17.35;6.80;;;;;;;;;;5026288;28;20072;-80
2021/12/15 06:22:01;;;;;;;15.73;5.95;;;;;;;;;;5025410;28;20073;-80
2021/12/15 06:24:28;;;;;;;16.40;6.75;;;;;;;;;;5038631;28;20065;-80
2021/12/15 06:26:57;;;;;;;14.95;6.93;;;;;;;;;;5027989;28;20042;-81
2021/12/15 06:29:25;;;;;;;18.80;7.70;;;;;;;;;;5032583;28;20048;-80
2021/12/15 06:31:51;;;;;;;15.32;7.43;;;;;;;;;;5028714;28;20048;-80
2021/12/15 06:34:18;;;;;;;20.65;8.77;;;;;;;;;;5038514;28;20038;-80
2021/12/15 06:36:45;;;;;;;21.85;9.25;;;;;;;;;;5041581;28;20049;-80
2021/12/15 06:39:11;;;;;;;28.20;12.52;;;;;;;;;;5028177;28;20491;-79
2021/12/15 06:41:38;;;;;;;33.42;12.50;;;;;;;;;;5024819;28;20077;-81
2021/12/15 06:44:05;;;;;;;17.85;8.25;;;;;;;;;;5023065;28;20092;-80
2021/12/15 06:58:10;;;;;;;20.10;8.32;;;;;;;;;;5034391;28;20119;-80
2021/12/15 07:00:20;;;;;;;17.95;7.75;;;;;;;;;;5024452;28;20060;-80
2021/12/15 07:02:48;;;;;;;25.58;8.45;;;;;;;;;;5024194;28;20493;-81
2021/12/15 07:05:15;;;;;;;22.00;8.25;;;;;;;;;;5025737;28;20050;-81
2021/12/15 07:07:44;;;;;;;27.08;11.13;;;;;;;;;;5026426;28;20038;-82
2021/12/15 07:10:13;;;;;;;29.70;12.32;;;;;;;;;;5022647;28;21652;-81
2021/12/15 07:12:40;;;;;;;23.42;10.52;;;;;;;;;;5024921;28;20497;-81
2021/12/15 07:15:08;;;;;;;27.88;10.48;;;;;;;;;;5023775;28;20069;-81
2021/12/15 07:17:36;;;;;;;37.20;11.38;;;;;;;;;;5021649;28;20073;-81
2021/12/15 07:20:18;;;;;;;27.80;10.63;;;;;;;;;;5022862;28;21508;-81
2021/12/15 07:22:44;;;;;;;26.83;10.25;;;;;;;;;;5026968;28;20042;-81
2021/12/15 07:25:14;;;;;;;26.50;10.30;;;;;;;;;;5024044;28;20122;-81
2021/12/15 07:27:41;;;;;;;20.85;9.10;;;;;;;;;;5024587;28;20077;-81
2021/12/15 07:30:08;;;;;;;25.55;9.85;;;;;;;;;;5024442;28;20760;-83
2021/12/15 07:32:35;;;;;;;21.80;9.55;;;;;;;;;;5024123;28;20057;-80
2021/12/15 07:35:04;;;;;;;20.08;8.45;;;;;;;;;;5015178;28;20786;-80
2021/12/15 07:37:32;;;;;;;22.10;8.73;;;;;;;;;;5024298;28;20827;-80
2021/12/15 07:39:59;;;;;;;19.70;8.95;;;;;;;;;;5020105;28;20150;-80
2021/12/15 07:42:34;;;;;;;20.77;8.85;;;;;;;;;;5018035;28;20053;-81
2021/12/15 07:45:01;;;;;;;18.88;7.72;;;;;;;;;;5025256;28;20103;-82
2021/12/15 07:47:29;;;;;;;16.95;7.80;;;;;;;;;;5030045;28;20053;-81
2021/12/15 07:49:59;;;;;;;22.77;8.57;;;;;;;;;;5027712;28;20119;-84
2021/12/15 07:52:27;;;;;;;19.08;8.15;;;;;;;;;;5023461;28;20049;-82
2021/12/15 07:54:54;;;;;;;20.20;7.65;;;;;;;;;;5024844;28;20790;-83
2021/12/15 07:57:22;;;;;;;30.10;8.82;;;;;;;;;;5022683;28;20081;-82
2021/12/15 07:59:50;;;;;;;21.38;7.55;;;;;;;;;;5022873;28;20130;-81
2021/12/15 08:02:17;;;;;;;20.40;8.48;;;;;;;;;;5021059;28;20057;-81
2021/12/15 08:04:44;;;;;;;23.55;9.25;;;;;;;;;;5018807;28;20113;-82
2021/12/15 08:07:10;;;;;;;20.95;8.68;;;;;;;;;;5020391;28;20045;-81
2021/12/15 08:09:39;;;;;;;24.25;9.95;;;;;;;;;;5020276;28;20073;-80
2021/12/15 08:12:07;;;;;;;21.77;10.18;;;;;;;;;;5019857;28;20046;-81
2021/12/15 08:14:34;;;;;;;21.80;11.05;;;;;;;;;;5019955;28;20045;-81
2021/12/15 08:17:00;;;;;;;22.35;10.43;;;;;;;;;;5020357;28;20073;-82
2021/12/15 08:19:27;;;;;;;24.60;10.52;;;;;;;;;;5021139;28;20045;-82
2021/12/15 08:21:54;;;;;;;26.48;10.60;;;;;;;;;;5026667;28;20042;-82
2021/12/15 08:24:21;;;;;;;25.25;9.80;;;;;;;;;;5021905;28;20497;-82
2021/12/15 08:26:49;;;;;;;17.92;8.65;;;;;;;;;;5022951;28;20073;-81
2021/12/15 08:29:19;;;;;;;29.63;10.57;;;;;;;;;;5025183;28;20537;-82
2021/12/15 08:31:48;;;;;;;21.45;9.75;;;;;;;;;;5025000;28;20077;-82
2021/12/15 08:34:15;;;;;;;25.42;9.93;;;;;;;;;;5025387;28;20135;-82
2021/12/15 08:36:41;;;;;;;29.45;10.23;;;;;;;;;;5024019;28;20144;-80
2021/12/15 08:39:10;;;;;;;32.97;12.27;;;;;;;;;;5024841;28;20090;-81
2021/12/15 08:41:36;;;;;;;39.70;13.30;;;;;;;;;;5022309;28;20055;-82
2021/12/15 08:44:13;;;;;;;36.47;12.07;;;;;;;;;;5023346;28;21166;-81
2021/12/15 08:46:46;;;;;;;30.00;11.52;;;;;;;;;;5022195;28;20045;-80
2021/12/15 08:49:16;;;;;;;28.65;11.15;;;;;;;;;;5022281;28;20697;-80
2021/12/15 08:51:47;;;;;;;36.45;13.55;;;;;;;;;;5016821;28;20065;-81
2021/12/15 08:54:18;;;;;;;32.78;11.45;;;;;;;;;;5024592;28;20049;-81
2021/12/15 08:56:45;;;;;;;26.95;11.25;;;;;;;;;;5019943;28;20053;-80
2021/12/15 08:59:14;;;;;;;28.25;10.43;;;;;;;;;;5020961;28;20123;-80
2021/12/15 09:01:41;;;;;;;27.15;10.30;;;;;;;;;;5018537;28;20041;-79
2021/12/15 09:04:08;;;;;;;33.38;11.95;;;;;;;;;;5018170;28;20057;-82
2021/12/15 09:06:36;;;;;;;23.75;10.60;;;;;;;;;;5018417;28;20127;-80
2021/12/15 09:09:02;;;;;;;27.20;11.50;;;;;;;;;;5018093;28;20057;-82
2021/12/15 09:11:29;;;;;;;26.60;11.63;;;;;;;;;;5021042;28;20052;-81
2021/12/15 09:13:58;;;;;;;27.63;11.93;;;;;;;;;;5025712;28;20084;-80
2021/12/15 09:16:28;;;;;;;26.80;11.40;;;;;;;;;;5025424;28;20548;-80
2021/12/15 09:18:55;;;;;;;23.52;10.63;;;;;;;;;;5022998;28;20128;-80
2021/12/15 09:21:24;;;;;;;28.90;11.40;;;;;;;;;;5019204;28;20045;-82
2021/12/15 09:23:51;;;;;;;24.80;10.43;;;;;;;;;;5017370;28;20092;-82
2021/12/15 09:26:20;;;;;;;27.90;10.07;;;;;;;;;;5020570;28;20050;-81
2021/12/15 09:28:47;;;;;;;32.35;10.73;;;;;;;;;;5020894;28;20050;-81
2021/12/15 09:31:15;;;;;;;22.42;9.23;;;;;;;;;;5023442;28;20112;-79
2021/12/15 09:33:46;;;;;;;22.25;8.82;;;;;;;;;;5024282;28;20053;-81
2021/12/15 09:36:14;;;;;;;32.53;10.90;;;;;;;;;;5018802;28;20068;-81
2021/12/15 09:38:41;;;;;;;28.55;9.50;;;;;;;;;;5022384;28;20088;-82
2021/12/15 09:41:10;;;;;;;23.90;9.68;;;;;;;;;;5007904;28;20056;-81
2021/12/15 09:43:37;;;;;;;23.00;10.00;;;;;;;;;;5022078;28;20133;-80
2021/12/15 09:46:12;;;;;;;24.27;9.50;;;;;;;;;;5022864;28;20060;-80
2021/12/15 09:57:16;;;;;;;19.88;9.80;;;;;;;;;;5022806;28;20182;-81
2021/12/15 10:02:39;;;;;;;25.13;12.38;;;;;;;;;;5023352;28;20052;-81
2021/12/15 10:05:17;;;;;;;17.52;10.05;;;;;;;;;;5022097;28;20049;-81
2021/12/15 10:11:13;;;;;;;19.58;9.98;;;;;;;;;;5023217;28;20064;-81
2021/12/15 10:19:18;;;;;;;15.00;8.93;;;;;;;;;;5041494;28;20059;-84
2021/12/15 10:21:57;;;;;;;12.52;7.68;;;;;;;;;;5035811;28;20042;-83
2021/12/15 10:24:32;;;;;;;13.23;7.50;;;;;;;;;;5040181;28;20042;-84
2021/12/15 10:27:01;;;;;;;12.63;6.47;;;;;;;;;;5037837;28;20112;-83
2021/12/15 10:29:27;;;;;;;14.65;7.43;;;;;;;;;;5026282;28;20045;-83
2021/12/15 10:32:00;;;;;;;12.90;7.43;;;;;;;;;;5042002;28;20092;-84
2021/12/15 10:34:28;;;;;;;11.48;6.20;;;;;;;;;;5040343;28;20069;-83
2021/12/15 10:36:56;;;;;;;14.60;7.25;;;;;;;;;;5039815;28;20043;-84
2021/12/15 10:39:23;;;;;;;12.73;6.28;;;;;;;;;;5039958;28;20050;-83
2021/12/15 10:41:56;;;;;;;15.50;7.15;;;;;;;;;;5039383;28;20049;-84
2021/12/15 10:44:25;;;;;;;23.58;14.55;;;;;;;;;;5037104;28;20045;-83
2021/12/15 10:46:54;;;;;;;16.05;9.23;;;;;;;;;;5035124;28;20060;-81
2021/12/15 10:49:24;;;;;;;14.95;7.88;;;;;;;;;;5039153;28;20045;-83
2021/12/15 10:51:55;;;;;;;13.52;8.25;;;;;;;;;;5043468;28;20056;-84
2021/12/15 10:54:24;;;;;;;12.60;6.95;;;;;;;;;;5042935;28;20042;-83
2021/12/15 10:56:56;;;;;;;18.02;7.50;;;;;;;;;;5033968;28;20053;-82
2021/12/15 10:59:24;;;;;;;13.35;6.47;;;;;;;;;;5037731;28;20046;-84
2021/12/15 11:01:58;;;;;;;14.63;7.80;;;;;;;;;;5041364;28;20102;-83
2021/12/15 11:04:38;;;;;;;10.85;5.90;;;;;;;;;;5041180;28;20053;-82
2021/12/15 11:07:16;;;;;;;11.57;6.50;;;;;;;;;;5040643;28;20042;-84
2021/12/15 11:09:47;;;;;;;11.07;5.15;;;;;;;;;;5040530;28;20391;-83
2021/12/15 11:12:19;;;;;;;12.25;5.60;;;;;;;;;;5040299;28;20048;-81
2021/12/15 11:14:48;;;;;;;8.05;4.60;;;;;;;;;;5039689;28;21487;-81
2021/12/15 11:17:17;;;;;;;10.68;5.05;;;;;;;;;;5041431;28;20045;-82
2021/12/15 11:19:51;;;;;;;8.07;4.65;;;;;;;;;;5040082;28;20100;-81
2021/12/15 11:22:47;;;;;;;9.35;4.38;;;;;;;;;;5046614;28;20057;-80
2021/12/15 11:25:19;;;;;;;8.40;4.22;;;;;;;;;;5043081;28;20481;-81
2021/12/15 11:27:50;;;;;;;9.88;4.60;;;;;;;;;;5035973;28;20041;-80
2021/12/15 11:30:24;;;;;;;10.38;5.43;;;;;;;;;;5041205;28;20107;-80
2021/12/15 11:32:53;;;;;;;12.90;5.10;;;;;;;;;;5042456;28;20037;-80
2021/12/15 11:35:24;;;;;;;11.25;5.15;;;;;;;;;;5044624;28;20049;-81
2021/12/15 11:37:56;;;;;;;10.77;5.68;;;;;;;;;;5046140;28;20042;-80
2021/12/15 11:40:28;;;;;;;9.07;4.78;;;;;;;;;;5041590;28;20084;-80
2021/12/15 11:42:56;;;;;;;11.80;5.28;;;;;;;;;;5041173;28;20038;-80
2021/12/15 11:45:24;;;;;;;12.05;5.40;;;;;;;;;;5029981;28;20107;-81
2021/12/15 11:48:11;;;;;;;9.52;4.82;;;;;;;;;;5035129;28;20041;-81
2021/12/15 11:50:39;;;;;;;8.65;4.65;;;;;;;;;;5031982;28;20045;-81
2021/12/15 11:53:06;;;;;;;8.93;4.72;;;;;;;;;;5033464;28;20044;-80
2021/12/15 11:55:36;;;;;;;9.55;4.85;;;;;;;;;;5032120;28;20077;-80
2021/12/15 11:58:06;;;;;;;9.07;5.20;;;;;;;;;;5031849;28;20044;-79
2021/12/15 12:00:32;;;;;;;10.35;5.55;;;;;;;;;;5032126;28;20099;-80
2021/12/15 12:03:04;;;;;;;12.20;6.00;;;;;;;;;;5031410;28;20064;-80
2021/12/15 12:05:34;;;;;;;10.00;5.00;;;;;;;;;;5031916;28;20104;-80
2021/12/15 12:08:03;;;;;;;10.82;5.63;;;;;;;;;;5032985;28;20045;-80
2021/12/15 12:10:33;;;;;;;16.00;5.88;;;;;;;;;;5031488;28;20055;-81
2021/12/15 12:13:07;;;;;;;10.38;6.03;;;;;;;;;;5032719;28;20785;-81
2021/12/15 12:15:50;;;;;;;10.10;5.68;;;;;;;;;;5030997;28;20067;-81
2021/12/15 12:18:27;;;;;;;10.95;6.93;;;;;;;;;;5031057;28;20429;-81
2021/12/15 12:21:00;;;;;;;11.48;6.00;;;;;;;;;;5032024;28;20037;-81
2021/12/15 12:23:56;;;;;;;11.45;5.85;;;;;;;;;;5033554;28;20045;-81
2021/12/15 12:26:34;;;;;;;13.23;6.13;;;;;;;;;;4912495;29;20084;-82
2021/12/15 12:29:02;;;;;;;13.15;6.18;;;;;;;;;;4915093;29;20107;-80
2021/12/15 12:31:43;;;;;;;11.45;6.10;;;;;;;;;;4910109;29;20052;-80
2021/12/15 12:34:16;;;;;;;14.77;7.95;;;;;;;;;;4911940;29;20048;-80
2021/12/15 12:36:53;;;;;;;13.88;7.63;;;;;;;;;;4908776;29;20588;-80
2021/12/15 12:39:38;;;;;;;11.00;6.45;;;;;;;;;;4911204;29;20051;-79
2021/12/15 12:42:31;;;;;;;13.43;7.18;;;;;;;;;;4910972;29;20072;-80
2021/12/15 12:45:15;;;;;;;10.85;6.38;;;;;;;;;;4911077;29;20052;-80
2021/12/15 12:47:59;;;;;;;7.75;5.22;;;;;;;;;;4908239;29;20051;-80
2021/12/15 12:57:51;;;;;;;14.40;6.75;;;;;;;;;;4992581;28;20064;-82
2021/12/15 12:59:34;;;;;;;13.20;6.85;;;;;;;;;;5030224;28;20061;-81
2021/12/15 13:02:05;;;;;;;12.15;7.78;;;;;;;;;;5030719;28;20151;-81
2021/12/15 13:04:41;;;;;;;12.55;6.40;;;;;;;;;;5028723;28;20064;-81
2021/12/15 13:07:11;;;;;;;11.20;6.88;;;;;;;;;;5030665;28;20041;-82
2021/12/15 13:09:46;;;;;;;10.65;6.85;;;;;;;;;;5029743;28;20068;-82
2021/12/15 13:12:24;;;;;;;13.30;6.75;;;;;;;;;;5027756;28;20045;-81
2021/12/15 13:14:54;;;;;;;13.00;6.65;;;;;;;;;;5034060;28;20050;-82
2021/12/15 13:17:35;;;;;;;13.27;8.10;;;;;;;;;;5031422;28;20481;-81
2021/12/15 13:20:37;;;;;;;13.60;7.85;;;;;;;;;;5031768;28;20055;-82
2021/12/15 13:23:27;;;;;;;;;;;;;;;;;;;;;
2021/12/15 13:28:49;;;;;;;13.10;6.35;;;;;;;;;;5030395;28;20056;-81
2021/12/15 13:31:20;;;;;;;10.10;6.25;;;;;;;;;;5026978;28;20057;-81
2021/12/15 13:33:50;;;;;;;10.25;5.97;;;;;;;;;;5029755;28;20069;-82
2021/12/15 13:36:20;;;;;;;9.75;5.10;;;;;;;;;;5027961;28;20054;-81
2021/12/15 13:38:51;;;;;;;11.18;6.18;;;;;;;;;;5030425;28;20072;-81
2021/12/15 13:41:37;;;;;;;11.80;6.38;;;;;;;;;;5028151;28;20058;-81
2021/12/15 13:44:17;;;;;;;12.82;6.80;;;;;;;;;;5031341;28;20041;-82
2021/12/15 13:46:51;;;;;;;14.10;6.55;;;;;;;;;;5033867;28;20049;-82
2021/12/15 13:49:45;;;;;;;9.35;5.47;;;;;;;;;;5033399;28;20045;-82
2021/12/15 13:52:32;;;;;;;12.57;6.47;;;;;;;;;;5029811;28;20132;-82
2021/12/15 13:55:13;;;;;;;;;;;;;;;;;;5034586;28;20473;-82
2021/12/15 13:58:04;;;;;;;10.88;6.32;;;;;;;;;;5037591;28;19929;-81
2021/12/15 14:00:35;;;;;;;11.65;6.43;;;;;;;;;;5035891;28;20068;-81
2021/12/15 14:03:18;;;;;;;11.00;5.60;;;;;;;;;;5038863;28;20045;-82
2021/12/15 14:09:33;;;;;;;11.80;6.30;;;;;;;;;;5053826;28;20049;-81
2021/12/15 14:12:09;;;;;;;;;;;;;;;;;;;;;
2021/12/15 14:14:45;;;;;;;12.00;5.88;;;;;;;;;;5038779;28;20089;-82
2021/12/15 14:17:18;;;;;;;10.13;5.90;;;;;;;;;;5035581;28;20053;-82
2021/12/15 14:19:47;;;;;;;16.13;8.45;;;;;;;;;;5038018;28;20132;-82
2021/12/15 14:22:14;;;;;;;12.07;6.80;;;;;;;;;;5035169;28;20049;-82
2021/12/15 14:24:42;;;;;;;12.45;6.90;;;;;;;;;;5036819;28;20041;-82
2021/12/15 14:27:16;;;;;;;11.70;6.88;;;;;;;;;;5035382;28;20053;-82
2021/12/15 14:29:55;;;;;;;;;;;;;;;;;;;;;
2021/12/15 14:32:25;;;;;;;12.32;6.60;;;;;;;;;;5034019;28;20105;-80
2021/12/15 14:34:53;;;;;;;12.57;7.13;;;;;;;;;;5033354;28;20046;-82
2021/12/15 14:37:23;;;;;;;14.98;7.10;;;;;;;;;;5032290;28;20390;-82
2021/12/15 14:39:54;;;;;;;17.58;8.88;;;;;;;;;;5035120;28;20107;-81
2021/12/15 14:42:22;;;;;;;14.50;7.90;;;;;;;;;;5035619;28;20205;-81
2021/12/15 14:44:52;;;;;;;12.75;6.70;;;;;;;;;;5034709;28;20045;-80
2021/12/15 14:47:20;;;;;;;14.43;6.95;;;;;;;;;;5032289;28;20122;-81
2021/12/15 14:49:49;;;;;;;13.35;6.63;;;;;;;;;;5031764;28;20073;-81
2021/12/15 14:52:17;;;;;;;11.93;6.68;;;;;;;;;;5031299;28;20760;-80
2021/12/15 14:54:52;;;;;;;12.82;6.80;;;;;;;;;;5031612;28;20045;-80
2021/12/15 14:57:21;;;;;;;15.63;6.68;;;;;;;;;;5032277;28;20092;-80
2021/12/15 14:59:50;;;;;;;18.67;10.30;;;;;;;;;;5032827;28;20084;-81
2021/12/15 15:02:19;;;;;;;23.05;12.18;;;;;;;;;;5034564;28;20068;-81
2021/12/15 15:04:48;;;;;;;10.38;6.60;;;;;;;;;;5019050;28;20049;-82
2021/12/15 15:07:17;;;;;;;12.43;7.47;;;;;;;;;;5032082;28;20041;-82
2021/12/15 15:09:46;;;;;;;13.23;8.02;;;;;;;;;;5035567;28;20061;-83
2021/12/15 15:12:19;;;;;;;13.77;7.57;;;;;;;;;;5035938;28;20077;-80
2021/12/15 15:14:48;;;;;;;14.20;6.55;;;;;;;;;;5033419;28;20049;-80
2021/12/15 15:17:30;;;;;;;13.65;7.85;;;;;;;;;;5032761;28;20049;-79
2021/12/15 15:20:01;;;;;;;14.07;7.55;;;;;;;;;;5029974;28;20544;-81
2021/12/15 15:22:32;;;;;;;13.60;7.78;;;;;;;;;;5032749;28;20089;-81
2021/12/15 15:24:59;;;;;;;14.50;8.68;;;;;;;;;;5030135;28;20049;-82
2021/12/15 15:27:27;;;;;;;16.95;8.43;;;;;;;;;;5032301;28;20128;-82
2021/12/15 15:29:56;;;;;;;16.95;8.93;;;;;;;;;;5031227;28;20049;-80
2021/12/15 15:32:25;;;;;;;14.75;10.00;;;;;;;;;;5030021;28;20079;-81
2021/12/15 15:34:55;;;;;;;11.23;7.70;;;;;;;;;;5028957;28;20073;-80
2021/12/15 15:37:25;;;;;;;14.82;7.60;;;;;;;;;;5027727;28;20065;-80
2021/12/15 15:40:09;;;;;;;12.13;7.10;;;;;;;;;;5029381;28;20041;-81
2021/12/15 15:42:37;;;;;;;18.98;8.45;;;;;;;;;;5030985;28;20077;-81
2021/12/15 15:45:05;;;;;;;14.73;7.55;;;;;;;;;;5030698;28;20068;-82
2021/12/15 15:47:32;;;;;;;16.48;8.02;;;;;;;;;;5031641;28;20080;-81
2021/12/15 15:50:01;;;;;;;16.45;8.15;;;;;;;;;;5030165;28;20308;-79
2021/12/15 15:52:28;;;;;;;13.40;8.88;;;;;;;;;;5035000;28;20412;-79